KAR857 UMKK-UWSG
Flight info
| Callsign | KAR857 |
|---|---|
| Flight time | N/A |
| Altitude | 35000 |
| Route | PELUG3N PELUG DCT OTVOV DCT KEDUX DCT PIVAX DCT PIRUX DCT PISIM DCT PIDIN DCT ARANS/K0861F350 DCT PISIS DCT MIGTU T73 NIRGI DCT TOKNU L4 UPERI T833 TOGMO M56 PISAR T385 SOKUR SOKUR1H |
| Aircraft | E190/M-SDE3GILORVW/S |
Departure
| Time | 2026-04-27 20:09 |
|---|---|
| Airport | Khrabrovo Airport (UMKK) |
Arrival
| Time | N/A |
|---|---|
| Airport | Gagarin International Airport (UWSG) |
| Time | Latitude | Longitude | Altitude | Speed | Heading |
|---|---|---|---|---|---|
| 2026-04-27 20:09 | 54.87867 | 20.54778 | 585 ft | 172 kts | 263° |
| 2026-04-27 20:09 | 54.87928 | 20.52836 | 766 ft | 155 kts | 290° |
| 2026-04-27 20:09 | 54.88372 | 20.51185 | 896 ft | 155 kts | 306° |
| 2026-04-27 20:09 | 54.89160 | 20.49747 | 1057 ft | 172 kts | 325° |
| 2026-04-27 20:10 | 54.90273 | 20.48744 | 1296 ft | 190 kts | 336° |
| 2026-04-27 20:10 | 54.91548 | 20.47805 | 1627 ft | 204 kts | 337° |
| 2026-04-27 20:10 | 54.92845 | 20.46858 | 2282 ft | 201 kts | 336° |
| 2026-04-27 20:10 | 54.94123 | 20.45868 | 2987 ft | 197 kts | 335° |
| 2026-04-27 20:11 | 54.95391 | 20.44888 | 3361 ft | 211 kts | 337° |
| 2026-04-27 20:11 | 54.96817 | 20.43908 | 3586 ft | 229 kts | 339° |
| 2026-04-27 20:11 | 54.98323 | 20.42917 | 4017 ft | 236 kts | 339° |
| 2026-04-27 20:11 | 54.99858 | 20.41867 | 4611 ft | 236 kts | 338° |
| 2026-04-27 20:12 | 55.01389 | 20.40800 | 5184 ft | 237 kts | 339° |
| 2026-04-27 20:12 | 55.02409 | 20.40099 | 5523 ft | 238 kts | 339° |
| 2026-04-27 20:12 | 55.04486 | 20.38723 | 6195 ft | 240 kts | 340° |
| 2026-04-27 20:12 | 55.06053 | 20.37711 | 6662 ft | 241 kts | 340° |
| 2026-04-27 20:13 | 55.07633 | 20.36701 | 7116 ft | 243 kts | 341° |
| 2026-04-27 20:13 | 55.09214 | 20.35704 | 7556 ft | 245 kts | 341° |
| 2026-04-27 20:13 | 55.10829 | 20.34689 | 8020 ft | 246 kts | 341° |
| 2026-04-27 20:13 | 55.12449 | 20.33691 | 8434 ft | 248 kts | 341° |
| 2026-04-27 20:14 | 55.13537 | 20.33041 | 8706 ft | 249 kts | 341° |
| 2026-04-27 20:14 | 55.15758 | 20.32111 | 9229 ft | 253 kts | 354° |
| 2026-04-27 20:14 | 55.16928 | 20.31976 | 9526 ft | 253 kts | 355° |
| 2026-04-27 20:14 | 55.18698 | 20.31822 | 9988 ft | 254 kts | 355° |
| 2026-04-27 20:15 | 55.20471 | 20.31664 | 10404 ft | 258 kts | 354° |
| 2026-04-27 20:15 | 55.22320 | 20.31509 | 10483 ft | 273 kts | 354° |
| 2026-04-27 20:15 | 55.24220 | 20.31335 | 10787 ft | 278 kts | 354° |
| 2026-04-27 20:15 | 55.26155 | 20.31136 | 11231 ft | 278 kts | 354° |
| 2026-04-27 20:16 | 55.28101 | 20.30966 | 11672 ft | 279 kts | 354° |
| 2026-04-27 20:16 | 55.30042 | 20.30792 | 12105 ft | 279 kts | 353° |
| 2026-04-27 20:16 | 55.31986 | 20.30616 | 12541 ft | 280 kts | 353° |
| 2026-04-27 20:16 | 55.33938 | 20.30444 | 12957 ft | 281 kts | 353° |
| 2026-04-27 20:17 | 55.35888 | 20.30273 | 13411 ft | 280 kts | 353° |
| 2026-04-27 20:17 | 55.37822 | 20.30101 | 13839 ft | 280 kts | 353° |
| 2026-04-27 20:17 | 55.39771 | 20.29916 | 14287 ft | 281 kts | 353° |
| 2026-04-27 20:17 | 55.41725 | 20.29739 | 14708 ft | 282 kts | 353° |
| 2026-04-27 20:18 | 55.43682 | 20.29570 | 15168 ft | 282 kts | 352° |
| 2026-04-27 20:18 | 55.45638 | 20.29391 | 15610 ft | 282 kts | 352° |
| 2026-04-27 20:18 | 55.47561 | 20.28931 | 16044 ft | 277 kts | 339° |
| 2026-04-27 20:18 | 55.49278 | 20.27419 | 16495 ft | 276 kts | 330° |
| 2026-04-27 20:19 | 55.50977 | 20.25847 | 16948 ft | 276 kts | 333° |
| 2026-04-27 20:19 | 55.52692 | 20.24319 | 17381 ft | 277 kts | 332° |
| 2026-04-27 20:19 | 55.54409 | 20.22744 | 17845 ft | 277 kts | 332° |
| 2026-04-27 20:19 | 55.56107 | 20.21151 | 18340 ft | 277 kts | 331° |
| 2026-04-27 20:20 | 55.57796 | 20.19545 | 18757 ft | 279 kts | 331° |
| 2026-04-27 20:20 | 55.59520 | 20.17895 | 19162 ft | 281 kts | 331° |
| 2026-04-27 20:20 | 55.61252 | 20.16231 | 19566 ft | 284 kts | 330° |
| 2026-04-27 20:20 | 55.62996 | 20.14553 | 19994 ft | 285 kts | 330° |
| 2026-04-27 20:21 | 55.64744 | 20.12870 | 20405 ft | 287 kts | 330° |
| 2026-04-27 20:21 | 55.66481 | 20.11194 | 20783 ft | 289 kts | 330° |
| 2026-04-27 20:21 | 55.68261 | 20.09474 | 21146 ft | 292 kts | 330° |
| 2026-04-27 20:21 | 55.70052 | 20.07745 | 21523 ft | 294 kts | 330° |
| 2026-04-27 20:22 | 55.71855 | 20.05992 | 21888 ft | 296 kts | 330° |
| 2026-04-27 20:22 | 55.73661 | 20.04238 | 22268 ft | 297 kts | 330° |
| 2026-04-27 20:22 | 55.75481 | 20.02467 | 22616 ft | 299 kts | 330° |
| 2026-04-27 20:22 | 55.77308 | 20.00685 | 22967 ft | 301 kts | 330° |
| 2026-04-27 20:23 | 55.79151 | 19.98885 | 23283 ft | 304 kts | 330° |
| 2026-04-27 20:23 | 55.81014 | 19.97064 | 23623 ft | 306 kts | 330° |
| 2026-04-27 20:23 | 55.82878 | 19.95239 | 23990 ft | 307 kts | 330° |
| 2026-04-27 20:23 | 55.84761 | 19.93396 | 24321 ft | 309 kts | 329° |
| 2026-04-27 20:24 | 55.86648 | 19.91542 | 24652 ft | 311 kts | 329° |
| 2026-04-27 20:24 | 55.88523 | 19.89697 | 24990 ft | 312 kts | 329° |
| 2026-04-27 20:24 | 55.90426 | 19.87822 | 25298 ft | 314 kts | 329° |
| 2026-04-27 20:24 | 55.92344 | 19.85929 | 25598 ft | 316 kts | 329° |
| 2026-04-27 20:25 | 55.94273 | 19.84024 | 25897 ft | 318 kts | 329° |
| 2026-04-27 20:25 | 55.96208 | 19.82104 | 26199 ft | 319 kts | 329° |
| 2026-04-27 20:25 | 55.98155 | 19.80174 | 26432 ft | 321 kts | 329° |
| 2026-04-27 20:25 | 56.00113 | 19.78228 | 26717 ft | 322 kts | 329° |
| 2026-04-27 20:26 | 56.02078 | 19.76274 | 26990 ft | 323 kts | 329° |
| 2026-04-27 20:26 | 56.04047 | 19.74312 | 27236 ft | 325 kts | 329° |
| 2026-04-27 20:26 | 56.06025 | 19.72338 | 27507 ft | 326 kts | 329° |
| 2026-04-27 20:26 | 56.08006 | 19.70356 | 27744 ft | 327 kts | 329° |
| 2026-04-27 20:27 | 56.10001 | 19.68358 | 27982 ft | 329 kts | 329° |
| 2026-04-27 20:27 | 56.12007 | 19.66348 | 28199 ft | 331 kts | 328° |
| 2026-04-27 20:27 | 56.14019 | 19.64329 | 28447 ft | 332 kts | 328° |
| 2026-04-27 20:27 | 56.16034 | 19.62303 | 28673 ft | 333 kts | 328° |
| 2026-04-27 20:28 | 56.18064 | 19.60258 | 28886 ft | 335 kts | 329° |
| 2026-04-27 20:28 | 56.20234 | 19.58695 | 29062 ft | 342 kts | 343° |
| 2026-04-27 20:28 | 56.22641 | 19.58327 | 29263 ft | 354 kts | 356° |
| 2026-04-27 20:28 | 56.24274 | 19.58703 | 29396 ft | 362 kts | 3° |
| 2026-04-27 20:29 | 56.27575 | 19.59907 | 29697 ft | 362 kts | 3° |
| 2026-04-27 20:29 | 56.30057 | 19.60845 | 29825 ft | 366 kts | 4° |
| 2026-04-27 20:29 | 56.32549 | 19.61864 | 30034 ft | 368 kts | 4° |
| 2026-04-27 20:29 | 56.35047 | 19.62923 | 30217 ft | 369 kts | 5° |
| 2026-04-27 20:30 | 56.37554 | 19.64003 | 30379 ft | 371 kts | 5° |
| 2026-04-27 20:30 | 56.40072 | 19.65098 | 30547 ft | 373 kts | 5° |
| 2026-04-27 20:30 | 56.42601 | 19.66200 | 30699 ft | 375 kts | 5° |
| 2026-04-27 20:30 | 56.45130 | 19.67306 | 30869 ft | 375 kts | 5° |
| 2026-04-27 20:31 | 56.47681 | 19.68427 | 30985 ft | 378 kts | 5° |
| 2026-04-27 20:31 | 56.50237 | 19.69554 | 31136 ft | 379 kts | 5° |
| 2026-04-27 20:31 | 56.52802 | 19.70689 | 31292 ft | 380 kts | 5° |
| 2026-04-27 20:31 | 56.55368 | 19.71824 | 31486 ft | 380 kts | 5° |
| 2026-04-27 20:32 | 56.57939 | 19.72960 | 31601 ft | 382 kts | 5° |
| 2026-04-27 20:32 | 56.60523 | 19.74111 | 31707 ft | 384 kts | 5° |
| 2026-04-27 20:32 | 56.63121 | 19.75274 | 31819 ft | 385 kts | 5° |
| 2026-04-27 20:32 | 56.65720 | 19.76440 | 32004 ft | 385 kts | 6° |
| 2026-04-27 20:33 | 56.68325 | 19.77606 | 32129 ft | 386 kts | 6° |
| 2026-04-27 20:33 | 56.70944 | 19.78777 | 32210 ft | 389 kts | 6° |
| 2026-04-27 20:33 | 56.73572 | 19.79961 | 32372 ft | 389 kts | 6° |
| 2026-04-27 20:33 | 56.76200 | 19.81148 | 32517 ft | 389 kts | 6° |
| 2026-04-27 20:34 | 56.78798 | 19.82321 | 32649 ft | 390 kts | 6° |
| 2026-04-27 20:34 | 56.81431 | 19.83513 | 32827 ft | 390 kts | 6° |
| 2026-04-27 20:34 | 56.84059 | 19.84707 | 33005 ft | 389 kts | 6° |
| 2026-04-27 20:34 | 56.86690 | 19.85906 | 33171 ft | 390 kts | 6° |
| 2026-04-27 20:35 | 56.89325 | 19.87110 | 33354 ft | 390 kts | 6° |
| 2026-04-27 20:35 | 56.91951 | 19.88310 | 33524 ft | 390 kts | 6° |
| 2026-04-27 20:35 | 56.94584 | 19.89514 | 33640 ft | 390 kts | 6° |
| 2026-04-27 20:35 | 56.97224 | 19.90727 | 33795 ft | 391 kts | 6° |
| 2026-04-27 20:36 | 56.99862 | 19.91945 | 33957 ft | 391 kts | 6° |
| 2026-04-27 20:36 | 57.02484 | 19.93277 | 34146 ft | 393 kts | 9° |
| 2026-04-27 20:36 | 57.05086 | 19.94836 | 34278 ft | 395 kts | 11° |
| 2026-04-27 20:36 | 57.07700 | 19.96426 | 34401 ft | 396 kts | 11° |
| 2026-04-27 20:37 | 57.10324 | 19.97986 | 34522 ft | 396 kts | 10° |
| 2026-04-27 20:37 | 57.12952 | 19.99527 | 34678 ft | 396 kts | 10° |
| 2026-04-27 20:37 | 57.15570 | 20.01055 | 34892 ft | 395 kts | 10° |
| 2026-04-27 20:37 | 57.18198 | 20.02588 | 34965 ft | 397 kts | 10° |
| 2026-04-27 20:38 | 57.20845 | 20.04134 | 35099 ft | 397 kts | 11° |
| 2026-04-27 20:38 | 57.23434 | 20.05654 | 35419 ft | 392 kts | 11° |
| 2026-04-27 20:38 | 57.28722 | 20.08750 | 35306 ft | 403 kts | 11° |
| 2026-04-27 20:39 | 57.34140 | 20.11930 | 35233 ft | 412 kts | 11° |
| 2026-04-27 20:39 | 57.39615 | 20.15164 | 35245 ft | 418 kts | 11° |
| 2026-04-27 20:40 | 57.45189 | 20.18471 | 35249 ft | 421 kts | 11° |
| 2026-04-27 20:40 | 57.50750 | 20.21779 | 35246 ft | 420 kts | 11° |
| 2026-04-27 20:41 | 57.56324 | 20.25097 | 35209 ft | 421 kts | 12° |
| 2026-04-27 20:41 | 57.61893 | 20.28426 | 35220 ft | 420 kts | 12° |
| 2026-04-27 20:42 | 57.67461 | 20.31765 | 35235 ft | 421 kts | 12° |
| 2026-04-27 20:42 | 57.73034 | 20.35118 | 35219 ft | 420 kts | 12° |
| 2026-04-27 20:43 | 57.78597 | 20.38475 | 35222 ft | 420 kts | 12° |
| 2026-04-27 20:43 | 57.84169 | 20.41848 | 35223 ft | 421 kts | 12° |
| 2026-04-27 20:44 | 57.89736 | 20.45230 | 35223 ft | 420 kts | 12° |
| 2026-04-27 20:44 | 57.95309 | 20.48628 | 35222 ft | 421 kts | 12° |
| 2026-04-27 20:45 | 58.00877 | 20.52029 | 35223 ft | 421 kts | 12° |
| 2026-04-27 20:45 | 58.06422 | 20.55433 | 35210 ft | 421 kts | 12° |
| 2026-04-27 20:46 | 58.12004 | 20.58878 | 35213 ft | 422 kts | 12° |
| 2026-04-27 20:46 | 58.17606 | 20.62335 | 35211 ft | 422 kts | 12° |
| 2026-04-27 20:47 | 58.23192 | 20.65796 | 35212 ft | 423 kts | 12° |
| 2026-04-27 20:47 | 58.28789 | 20.69271 | 35212 ft | 424 kts | 12° |
| 2026-04-27 20:48 | 58.33445 | 20.72172 | 35213 ft | 424 kts | 13° |
| 2026-04-27 20:48 | 58.39962 | 20.76254 | 35212 ft | 424 kts | 13° |
| 2026-04-27 20:49 | 58.45598 | 20.79790 | 35199 ft | 425 kts | 13° |
| 2026-04-27 20:49 | 58.51191 | 20.83314 | 35202 ft | 425 kts | 13° |
| 2026-04-27 20:50 | 58.56813 | 20.86868 | 35205 ft | 425 kts | 13° |
| 2026-04-27 20:50 | 58.62436 | 20.90433 | 35203 ft | 426 kts | 13° |
| 2026-04-27 20:51 | 58.68063 | 20.94015 | 35194 ft | 426 kts | 13° |
| 2026-04-27 20:51 | 58.73661 | 20.97593 | 35193 ft | 426 kts | 13° |
| 2026-04-27 20:52 | 58.79291 | 21.01208 | 35196 ft | 427 kts | 14° |
| 2026-04-27 20:52 | 58.84918 | 21.04821 | 35193 ft | 426 kts | 14° |
| 2026-04-27 20:53 | 58.90558 | 21.08455 | 35159 ft | 428 kts | 14° |
| 2026-04-27 20:53 | 58.96196 | 21.12102 | 35164 ft | 427 kts | 14° |
| 2026-04-27 20:54 | 59.04345 | 21.19327 | 35227 ft | 448 kts | 38° |
| 2026-04-27 20:54 | 59.06329 | 21.24097 | 35256 ft | 462 kts | 54° |
| 2026-04-27 20:55 | 59.07882 | 21.29613 | 35180 ft | 469 kts | 57° |
| 2026-04-27 20:55 | 59.10828 | 21.40970 | 35174 ft | 471 kts | 57° |
| 2026-04-27 20:56 | 59.13782 | 21.52383 | 35154 ft | 472 kts | 58° |
| 2026-04-27 20:56 | 59.16734 | 21.63811 | 35150 ft | 472 kts | 58° |
| 2026-04-27 20:57 | 59.19681 | 21.75271 | 35150 ft | 473 kts | 58° |
| 2026-04-27 20:57 | 59.22613 | 21.86719 | 35150 ft | 472 kts | 58° |
| 2026-04-27 20:58 | 59.25547 | 21.98245 | 35137 ft | 472 kts | 58° |
| 2026-04-27 20:58 | 59.28452 | 22.09706 | 35137 ft | 472 kts | 59° |
| 2026-04-27 20:59 | 59.31354 | 22.21210 | 35137 ft | 472 kts | 59° |
| 2026-04-27 20:59 | 59.34262 | 22.32807 | 35139 ft | 472 kts | 59° |
| 2026-04-27 21:00 | 59.37139 | 22.44339 | 35134 ft | 473 kts | 59° |
| 2026-04-27 21:00 | 59.40017 | 22.55927 | 35137 ft | 473 kts | 59° |
| 2026-04-27 21:01 | 59.42411 | 22.65610 | 35127 ft | 473 kts | 59° |
| 2026-04-27 21:01 | 59.45747 | 22.79197 | 35138 ft | 473 kts | 60° |
| 2026-04-27 21:02 | 59.48129 | 22.88937 | 35138 ft | 473 kts | 60° |
| 2026-04-27 21:02 | 59.50958 | 23.00589 | 35121 ft | 473 kts | 60° |
| 2026-04-27 21:03 | 59.53785 | 23.12260 | 35112 ft | 474 kts | 60° |
| 2026-04-27 21:03 | 59.56123 | 23.24522 | 35114 ft | 479 kts | 68° |
| 2026-04-27 21:04 | 59.58117 | 23.36998 | 35096 ft | 475 kts | 69° |
| 2026-04-27 21:04 | 59.60092 | 23.49363 | 35097 ft | 475 kts | 69° |
| 2026-04-27 21:05 | 59.62068 | 23.61793 | 35094 ft | 475 kts | 69° |
| 2026-04-27 21:05 | 59.64039 | 23.74275 | 35082 ft | 474 kts | 69° |
| 2026-04-27 21:06 | 59.65991 | 23.86720 | 35094 ft | 475 kts | 69° |
| 2026-04-27 21:06 | 59.67925 | 23.99147 | 35079 ft | 474 kts | 69° |
| 2026-04-27 21:07 | 59.69855 | 24.11643 | 35083 ft | 474 kts | 70° |
| 2026-04-27 21:07 | 59.71773 | 24.24153 | 35075 ft | 474 kts | 70° |
| 2026-04-27 21:08 | 59.73682 | 24.36689 | 35063 ft | 474 kts | 70° |
| 2026-04-27 21:08 | 59.75550 | 24.49207 | 35058 ft | 475 kts | 72° |
| 2026-04-27 21:09 | 59.77143 | 24.61929 | 35059 ft | 476 kts | 73° |
| 2026-04-27 21:09 | 59.78738 | 24.74713 | 35052 ft | 476 kts | 73° |
| 2026-04-27 21:10 | 59.80341 | 24.87441 | 35054 ft | 476 kts | 73° |
| 2026-04-27 21:10 | 59.81944 | 25.00262 | 35047 ft | 476 kts | 73° |
| 2026-04-27 21:11 | 59.83528 | 25.13025 | 35046 ft | 476 kts | 73° |
| 2026-04-27 21:11 | 59.85091 | 25.25757 | 35037 ft | 476 kts | 73° |
| 2026-04-27 21:12 | 59.86653 | 25.38585 | 35038 ft | 475 kts | 74° |
| 2026-04-27 21:12 | 59.88190 | 25.51321 | 35037 ft | 474 kts | 74° |
| 2026-04-27 21:13 | 59.89711 | 25.64065 | 35037 ft | 474 kts | 74° |
| 2026-04-27 21:13 | 59.91224 | 25.76837 | 35039 ft | 474 kts | 75° |
| 2026-04-27 21:14 | 59.92742 | 25.89637 | 35037 ft | 474 kts | 75° |
| 2026-04-27 21:14 | 59.94231 | 26.02454 | 35027 ft | 473 kts | 75° |
| 2026-04-27 21:15 | 59.95698 | 26.15217 | 35029 ft | 474 kts | 75° |
| 2026-04-27 21:15 | 59.97163 | 26.28010 | 35029 ft | 474 kts | 75° |
| 2026-04-27 21:16 | 59.98627 | 26.40886 | 35020 ft | 474 kts | 75° |
| 2026-04-27 21:16 | 60.00069 | 26.53695 | 35017 ft | 474 kts | 75° |
| 2026-04-27 21:17 | 60.01504 | 26.66574 | 35012 ft | 473 kts | 75° |
| 2026-04-27 21:17 | 60.02915 | 26.79356 | 34987 ft | 473 kts | 76° |
| 2026-04-27 21:18 | 60.04328 | 26.92287 | 34989 ft | 473 kts | 76° |
| 2026-04-27 21:18 | 60.04787 | 27.05345 | 34991 ft | 478 kts | 91° |
| 2026-04-27 21:19 | 60.04314 | 27.18614 | 34933 ft | 476 kts | 92° |
| 2026-04-27 21:19 | 60.03844 | 27.31833 | 34941 ft | 476 kts | 92° |
| 2026-04-27 21:20 | 60.03143 | 27.51634 | 34944 ft | 476 kts | 92° |
| 2026-04-27 21:20 | 60.02659 | 27.64829 | 34943 ft | 476 kts | 92° |
| 2026-04-27 21:21 | 60.02162 | 27.77970 | 34942 ft | 476 kts | 92° |
| 2026-04-27 21:21 | 60.01652 | 27.91182 | 34945 ft | 476 kts | 92° |
| 2026-04-27 21:22 | 60.01130 | 28.04364 | 34941 ft | 476 kts | 93° |
| 2026-04-27 21:22 | 60.00592 | 28.17572 | 34891 ft | 477 kts | 93° |
| 2026-04-27 21:23 | 60.00046 | 28.30747 | 34892 ft | 475 kts | 93° |
| 2026-04-27 21:23 | 59.99484 | 28.43932 | 34881 ft | 476 kts | 93° |
| 2026-04-27 21:24 | 59.98905 | 28.57114 | 34869 ft | 477 kts | 93° |
| 2026-04-27 21:24 | 59.98316 | 28.70308 | 34870 ft | 477 kts | 93° |
| 2026-04-27 21:25 | 59.97519 | 28.83448 | 34872 ft | 478 kts | 100° |
| 2026-04-27 21:25 | 59.96031 | 28.96402 | 34839 ft | 479 kts | 102° |
| 2026-04-27 21:26 | 59.94508 | 29.09255 | 34846 ft | 478 kts | 102° |
| 2026-04-27 21:26 | 59.92976 | 29.22189 | 34851 ft | 478 kts | 102° |
| 2026-04-27 21:27 | 59.91442 | 29.35045 | 34843 ft | 477 kts | 102° |
| 2026-04-27 21:27 | 59.89893 | 29.47928 | 34842 ft | 477 kts | 102° |
| 2026-04-27 21:28 | 59.88341 | 29.60714 | 34842 ft | 476 kts | 102° |
| 2026-04-27 21:28 | 59.86772 | 29.73510 | 34832 ft | 475 kts | 102° |
| 2026-04-27 21:29 | 59.85201 | 29.86237 | 34833 ft | 476 kts | 102° |
| 2026-04-27 21:29 | 59.83606 | 29.99025 | 34835 ft | 475 kts | 102° |
| 2026-04-27 21:30 | 59.82007 | 30.11734 | 34832 ft | 475 kts | 103° |
| 2026-04-27 21:30 | 59.80355 | 30.24458 | 34834 ft | 475 kts | 103° |
| 2026-04-27 21:31 | 59.78679 | 30.37229 | 34833 ft | 476 kts | 103° |
| 2026-04-27 21:31 | 59.77006 | 30.49907 | 34833 ft | 476 kts | 103° |
| 2026-04-27 21:32 | 59.75328 | 30.62531 | 34835 ft | 476 kts | 103° |
| 2026-04-27 21:32 | 59.73624 | 30.75235 | 34833 ft | 476 kts | 103° |
| 2026-04-27 21:33 | 59.71906 | 30.87946 | 34829 ft | 476 kts | 103° |
| 2026-04-27 21:33 | 59.70191 | 31.00514 | 34828 ft | 475 kts | 103° |
| 2026-04-27 21:34 | 59.68448 | 31.13167 | 34820 ft | 475 kts | 105° |
| 2026-04-27 21:34 | 59.65627 | 31.24949 | 34817 ft | 478 kts | 116° |
| 2026-04-27 21:35 | 59.62464 | 31.36513 | 34805 ft | 477 kts | 116° |
| 2026-04-27 21:35 | 59.59320 | 31.48006 | 34792 ft | 476 kts | 116° |
| 2026-04-27 21:36 | 59.56161 | 31.59538 | 34800 ft | 476 kts | 116° |
| 2026-04-27 21:36 | 59.53017 | 31.70951 | 34796 ft | 475 kts | 116° |
| 2026-04-27 21:37 | 59.49841 | 31.82410 | 34798 ft | 475 kts | 117° |
| 2026-04-27 21:37 | 59.47956 | 31.87670 | 34808 ft | 478 kts | 128° |
| 2026-04-27 21:37 | 59.45763 | 31.92664 | 34814 ft | 479 kts | 129° |
| 2026-04-27 21:38 | 59.41336 | 32.02417 | 34781 ft | 479 kts | 130° |
| 2026-04-27 21:38 | 59.36929 | 32.12183 | 34825 ft | 479 kts | 129° |
| 2026-04-27 21:39 | 59.32503 | 32.22017 | 34805 ft | 479 kts | 129° |
| 2026-04-27 21:39 | 59.28097 | 32.31756 | 34812 ft | 480 kts | 129° |
| 2026-04-27 21:40 | 59.23643 | 32.41551 | 34802 ft | 481 kts | 130° |
| 2026-04-27 21:40 | 59.19212 | 32.51251 | 34809 ft | 481 kts | 130° |
| 2026-04-27 21:41 | 59.14738 | 32.61021 | 34792 ft | 481 kts | 130° |
| 2026-04-27 21:41 | 59.10286 | 32.70699 | 34797 ft | 482 kts | 130° |
| 2026-04-27 21:42 | 59.05809 | 32.80391 | 34789 ft | 482 kts | 130° |
| 2026-04-27 21:42 | 59.01295 | 32.90109 | 34788 ft | 483 kts | 130° |
| 2026-04-27 21:43 | 58.96803 | 32.99740 | 34762 ft | 483 kts | 130° |
| 2026-04-27 21:43 | 58.92278 | 33.09409 | 34750 ft | 483 kts | 130° |
| 2026-04-27 21:44 | 58.87766 | 33.19004 | 34749 ft | 484 kts | 130° |
| 2026-04-27 21:44 | 58.83242 | 33.28582 | 34741 ft | 484 kts | 130° |
| 2026-04-27 21:45 | 58.78683 | 33.38197 | 34740 ft | 485 kts | 130° |
| 2026-04-27 21:45 | 58.74125 | 33.47772 | 34729 ft | 485 kts | 131° |
| 2026-04-27 21:46 | 58.69556 | 33.57330 | 34739 ft | 486 kts | 131° |
| 2026-04-27 21:46 | 58.64975 | 33.66869 | 34717 ft | 487 kts | 131° |
| 2026-04-27 21:47 | 58.60377 | 33.76409 | 34705 ft | 488 kts | 131° |
| 2026-04-27 21:47 | 58.55770 | 33.85922 | 34711 ft | 488 kts | 131° |
| 2026-04-27 21:48 | 58.51160 | 33.95413 | 34703 ft | 488 kts | 131° |
| 2026-04-27 21:48 | 58.46519 | 34.04913 | 34696 ft | 489 kts | 131° |
| 2026-04-27 21:49 | 58.41878 | 34.14381 | 34692 ft | 489 kts | 131° |
| 2026-04-27 21:49 | 58.37231 | 34.23824 | 34642 ft | 489 kts | 131° |
| 2026-04-27 21:50 | 58.32578 | 34.33239 | 34568 ft | 488 kts | 131° |
| 2026-04-27 21:50 | 58.27912 | 34.42643 | 34470 ft | 489 kts | 132° |
| 2026-04-27 21:51 | 58.23231 | 34.52023 | 34429 ft | 488 kts | 132° |
| 2026-04-27 21:51 | 58.18045 | 34.60262 | 34469 ft | 492 kts | 148° |
| 2026-04-27 21:52 | 58.11999 | 34.66515 | 34420 ft | 492 kts | 150° |
| 2026-04-27 21:52 | 58.05994 | 34.72655 | 34429 ft | 492 kts | 150° |
| 2026-04-27 21:53 | 57.99994 | 34.78842 | 34431 ft | 492 kts | 150° |
| 2026-04-27 21:53 | 57.93986 | 34.85024 | 34427 ft | 495 kts | 150° |
| 2026-04-27 21:54 | 57.87950 | 34.91215 | 34430 ft | 494 kts | 151° |
| 2026-04-27 21:54 | 57.82933 | 34.96338 | 34431 ft | 494 kts | 151° |
| 2026-04-27 21:55 | 57.75899 | 35.03498 | 34432 ft | 494 kts | 151° |
| 2026-04-27 21:55 | 57.70830 | 35.08635 | 34429 ft | 494 kts | 151° |
| 2026-04-27 21:56 | 57.61782 | 35.17766 | 34432 ft | 495 kts | 151° |
| 2026-04-27 21:57 | 57.55700 | 35.23867 | 34431 ft | 495 kts | 151° |
| 2026-04-27 21:57 | 57.49662 | 35.29915 | 34432 ft | 494 kts | 151° |
| 2026-04-27 21:58 | 57.43626 | 35.35934 | 34429 ft | 494 kts | 151° |
| 2026-04-27 21:58 | 57.37569 | 35.41947 | 34428 ft | 494 kts | 151° |
| 2026-04-27 21:59 | 57.31499 | 35.47953 | 34432 ft | 494 kts | 152° |
| 2026-04-27 21:59 | 57.25436 | 35.53929 | 34423 ft | 494 kts | 152° |
| 2026-04-27 22:00 | 57.19381 | 35.59871 | 34419 ft | 494 kts | 152° |
| 2026-04-27 22:00 | 57.13295 | 35.65825 | 34422 ft | 495 kts | 152° |
| 2026-04-27 22:01 | 57.07215 | 35.71752 | 34423 ft | 494 kts | 152° |
| 2026-04-27 22:01 | 57.01133 | 35.77654 | 34421 ft | 495 kts | 152° |
| 2026-04-27 22:02 | 56.95080 | 35.83509 | 34421 ft | 496 kts | 152° |
| 2026-04-27 22:02 | 56.88979 | 35.89391 | 34423 ft | 495 kts | 152° |
| 2026-04-27 22:03 | 56.82852 | 35.95276 | 34424 ft | 495 kts | 152° |
| 2026-04-27 22:03 | 56.76766 | 36.01101 | 34414 ft | 495 kts | 153° |
| 2026-04-27 22:04 | 56.70687 | 36.06894 | 34428 ft | 494 kts | 153° |
| 2026-04-27 22:04 | 56.64597 | 36.12681 | 34459 ft | 495 kts | 153° |
| 2026-04-27 22:05 | 56.58457 | 36.18486 | 34460 ft | 495 kts | 153° |
| 2026-04-27 22:05 | 56.52352 | 36.24241 | 34472 ft | 496 kts | 153° |
| 2026-04-27 22:06 | 56.46264 | 36.29960 | 34461 ft | 496 kts | 153° |
| 2026-04-27 22:06 | 56.40142 | 36.35690 | 34450 ft | 496 kts | 153° |
| 2026-04-27 22:07 | 56.34621 | 36.43028 | 34500 ft | 497 kts | 130° |
| 2026-04-27 22:07 | 56.30418 | 36.52889 | 34439 ft | 497 kts | 127° |
| 2026-04-27 22:08 | 56.26225 | 36.62806 | 34455 ft | 497 kts | 127° |
| 2026-04-27 22:08 | 56.22005 | 36.72613 | 34458 ft | 496 kts | 128° |
| 2026-04-27 22:09 | 56.17782 | 36.82364 | 34462 ft | 495 kts | 128° |
| 2026-04-27 22:09 | 56.13560 | 36.92074 | 34439 ft | 496 kts | 128° |
| 2026-04-27 22:10 | 56.09321 | 37.01798 | 34384 ft | 494 kts | 128° |
| 2026-04-27 22:10 | 56.05113 | 37.11574 | 34400 ft | 494 kts | 127° |
| 2026-04-27 22:11 | 56.01048 | 37.21388 | 34391 ft | 493 kts | 127° |
| 2026-04-27 22:11 | 55.98994 | 37.26300 | 34395 ft | 493 kts | 127° |
| 2026-04-27 22:11 | 55.97012 | 37.30472 | 34405 ft | 493 kts | 139° |
| 2026-04-27 22:12 | 55.94301 | 37.34256 | 34430 ft | 493 kts | 146° |
| 2026-04-27 22:12 | 55.88612 | 37.40997 | 34380 ft | 490 kts | 148° |
| 2026-04-27 22:13 | 55.82932 | 37.47715 | 34396 ft | 490 kts | 147° |
| 2026-04-27 22:13 | 55.77268 | 37.54455 | 34427 ft | 491 kts | 147° |
| 2026-04-27 22:14 | 55.71601 | 37.61184 | 34436 ft | 491 kts | 147° |
| 2026-04-27 22:14 | 55.65925 | 37.67898 | 34431 ft | 490 kts | 148° |
| 2026-04-27 22:15 | 55.60000 | 37.73806 | 34448 ft | 489 kts | 154° |
| 2026-04-27 22:15 | 55.53986 | 37.79403 | 34442 ft | 489 kts | 153° |
| 2026-04-27 22:16 | 55.47985 | 37.85029 | 34434 ft | 489 kts | 153° |
| 2026-04-27 22:16 | 55.41950 | 37.90688 | 34445 ft | 489 kts | 153° |
| 2026-04-27 22:17 | 55.35995 | 37.96464 | 34446 ft | 491 kts | 149° |
| 2026-04-27 22:17 | 55.30287 | 38.03034 | 34442 ft | 491 kts | 148° |
| 2026-04-27 22:18 | 55.24566 | 38.09471 | 34438 ft | 489 kts | 149° |
| 2026-04-27 22:18 | 55.18823 | 38.15829 | 34444 ft | 489 kts | 149° |
| 2026-04-27 22:19 | 55.13076 | 38.22158 | 34448 ft | 489 kts | 149° |
| 2026-04-27 22:19 | 55.07310 | 38.28489 | 34451 ft | 490 kts | 149° |
| 2026-04-27 22:20 | 55.01560 | 38.34774 | 34457 ft | 489 kts | 150° |
| 2026-04-27 22:20 | 54.95765 | 38.41092 | 34454 ft | 489 kts | 150° |
| 2026-04-27 22:21 | 54.90002 | 38.47354 | 34464 ft | 489 kts | 150° |
| 2026-04-27 22:21 | 54.84244 | 38.53592 | 34470 ft | 490 kts | 150° |
| 2026-04-27 22:22 | 54.78467 | 38.59822 | 34471 ft | 489 kts | 150° |
| 2026-04-27 22:22 | 54.72691 | 38.66032 | 34480 ft | 489 kts | 150° |
| 2026-04-27 22:23 | 54.66914 | 38.72223 | 34488 ft | 489 kts | 150° |
| 2026-04-27 22:23 | 54.61122 | 38.78411 | 34504 ft | 489 kts | 150° |
| 2026-04-27 22:24 | 54.55335 | 38.84571 | 34499 ft | 489 kts | 150° |
| 2026-04-27 22:24 | 54.49556 | 38.90698 | 34503 ft | 488 kts | 150° |
| 2026-04-27 22:25 | 54.43747 | 38.96840 | 34507 ft | 488 kts | 150° |
| 2026-04-27 22:25 | 54.38458 | 39.04038 | 34534 ft | 495 kts | 127° |
| 2026-04-27 22:25 | 54.36827 | 39.09280 | 34580 ft | 498 kts | 114° |
| 2026-04-27 22:26 | 54.35593 | 39.14781 | 34583 ft | 499 kts | 111° |
| 2026-04-27 22:26 | 54.33208 | 39.25879 | 34530 ft | 497 kts | 112° |
| 2026-04-27 22:27 | 54.30609 | 39.36850 | 34544 ft | 497 kts | 114° |
| 2026-04-27 22:27 | 54.27934 | 39.47767 | 34547 ft | 498 kts | 114° |
| 2026-04-27 22:28 | 54.25252 | 39.58736 | 34579 ft | 497 kts | 114° |
| 2026-04-27 22:28 | 54.22591 | 39.69582 | 34547 ft | 497 kts | 114° |
| 2026-04-27 22:29 | 54.19915 | 39.80453 | 34554 ft | 498 kts | 114° |
| 2026-04-27 22:29 | 54.17210 | 39.91386 | 34579 ft | 497 kts | 115° |
| 2026-04-27 22:30 | 54.14516 | 40.02217 | 34559 ft | 497 kts | 115° |
| 2026-04-27 22:30 | 54.11840 | 40.13067 | 34577 ft | 498 kts | 111° |
| 2026-04-27 22:31 | 54.09791 | 40.24370 | 34586 ft | 499 kts | 108° |
| 2026-04-27 22:31 | 54.07853 | 40.35679 | 34581 ft | 499 kts | 108° |
| 2026-04-27 22:32 | 54.05876 | 40.47001 | 34595 ft | 498 kts | 108° |
| 2026-04-27 22:32 | 54.03880 | 40.58282 | 34590 ft | 497 kts | 108° |
| 2026-04-27 22:33 | 54.02219 | 40.67605 | 34588 ft | 497 kts | 108° |
| 2026-04-27 22:33 | 54.02044 | 40.68591 | 34589 ft | 497 kts | 108° |